Time;durP1;ratioP1;P1;durP2;ratioP2;P2;SDS_P1;SDS_P2;PMS_P1;PMS_P2;Temp;Humidity;BMP_temperature;BMP_pressure;BME280_temperature;BME280_humidity;BME280_pressure;Samples;Min_cycle;Max_cycle;Signal;HPM_P1;HPM_P2
2024/01/31 00:01:15;;;;;;;;;;;;;;;21.69;20.47;99806.88;5016968;28;968;-75
2024/01/31 00:03:41;;;;;;;;;;;;;;;21.66;20.43;99801.22;5001892;28;1238;-74
2024/01/31 00:06:06;;;;;;;;;;;;;;;21.80;20.37;99799.22;5017921;28;811;-74
2024/01/31 00:08:32;;;;;;;;;;;;;;;21.26;20.85;99794.63;5017735;28;957;-75
2024/01/31 00:10:57;;;;;;;;;;;;;;;21.27;21.07;99794.22;5001199;28;1906;-75
2024/01/31 00:13:24;;;;;;;;;;;;;;;21.06;21.20;99791.31;5034192;28;855;-74
2024/01/31 00:15:50;;;;;;;;;;;;;;;21.38;21.10;99790.63;5001416;28;744;-74
2024/01/31 00:18:15;;;;;;;;;;;;;;;21.51;20.86;99789.88;5017599;28;880;-74
2024/01/31 00:20:41;;;;;;;;;;;;;;;21.74;20.36;99798.00;5034556;28;794;-74
2024/01/31 00:23:07;;;;;;;;;;;;;;;21.88;20.31;99794.38;5050946;28;1071;-74
2024/01/31 00:25:32;;;;;;;;;;;;;;;21.65;20.51;99794.72;5038112;28;1188;-74
2024/01/31 00:27:58;;;;;;;;;;;;;;;21.49;20.90;99791.47;5054831;28;751;-74
2024/01/31 00:30:23;;;;;;;;;;;;;;;21.52;20.64;99785.00;4994212;28;1054;-74
2024/01/31 00:32:49;;;;;;;;;;;;;;;21.58;20.47;99789.06;4994545;28;1989;-75
2024/01/31 00:35:14;;;;;;;;;;;;;;;21.64;20.61;99793.13;4978253;28;1599;-75
2024/01/31 00:37:40;;;;;;;;;;;;;;;21.80;20.52;99796.38;4978259;28;775;-74
2024/01/31 00:40:06;;;;;;;;;;;;;;;21.31;20.96;99791.44;4978042;28;1187;-75
2024/01/31 00:42:31;;;;;;;;;;;;;;;21.40;20.92;99805.19;4978097;28;1105;-75
2024/01/31 00:44:57;;;;;;;;;;;;;;;21.23;20.89;99796.22;4994177;28;744;-74
2024/01/31 00:47:23;;;;;;;;;;;;;;;21.45;20.69;99801.97;4975004;28;944;-74
2024/01/31 00:49:49;;;;;;;;;;;;;;;21.42;20.59;99791.47;4955451;28;934;-74
2024/01/31 00:52:16;;;;;;;;;;;;;;;21.57;20.68;99799.59;4955584;29;1910;-74
2024/01/31 00:54:41;;;;;;;;;;;;;;;21.71;20.33;99795.97;4955276;28;1151;-74
2024/01/31 00:57:07;;;;;;;;;;;;;;;21.70;20.46;99791.50;4955413;29;808;-75
2024/01/31 00:59:32;;;;;;;;;;;;;;;21.84;20.41;99785.84;4955193;29;774;-74
2024/01/31 01:01:58;;;;;;;;;;;;;;;21.83;20.40;99789.91;4939386;29;1252;-74
2024/01/31 01:04:23;;;;;;;;;;;;;;;21.83;20.09;99777.78;4955181;28;836;-74
2024/01/31 01:06:49;;;;;;;;;;;;;;;21.86;20.27;99782.59;4956940;28;876;-74
2024/01/31 01:09:14;;;;;;;;;;;;;;;21.98;20.13;99790.72;4974551;28;1124;-74
2024/01/31 01:11:40;;;;;;;;;;;;;;;21.34;20.88;99784.97;4974439;28;1989;-75
2024/01/31 01:14:06;;;;;;;;;;;;;;;21.23;20.88;99779.22;4974500;28;962;-74
2024/01/31 01:16:32;;;;;;;;;;;;;;;21.51;20.58;99783.41;4974313;28;975;-74
2024/01/31 01:18:57;;;;;;;;;;;;;;;21.52;20.54;99780.16;5003873;28;1007;-74
2024/01/31 01:21:23;;;;;;;;;;;;;;;21.83;20.40;99772.09;5000170;28;1133;-74
2024/01/31 01:23:48;;;;;;;;;;;;;;;21.57;20.36;99781.78;5016485;28;1203;-74
2024/01/31 01:26:14;;;;;;;;;;;;;;;21.54;20.63;99776.91;5000231;28;1114;-74
2024/01/31 01:28:39;;;;;;;;;;;;;;;21.76;20.40;99767.25;5032993;28;1049;-74
2024/01/31 01:31:05;;;;;;;;;;;;;;;21.36;20.80;99773.25;5016633;28;1902;-74
2024/01/31 01:33:30;;;;;;;;;;;;;;;21.22;20.78;99771.97;5016776;28;858;-74
2024/01/31 01:35:56;;;;;;;;;;;;;;;21.25;20.96;99768.34;5016774;28;889;-75
2024/01/31 01:38:21;;;;;;;;;;;;;;;21.69;20.19;99770.06;5016576;28;870;-74
2024/01/31 01:40:47;;;;;;;;;;;;;;;21.70;20.48;99774.50;5028625;28;973;-74
2024/01/31 01:43:16;;;;;;;;;;;;;;;21.74;20.14;99752.66;5017892;28;1088;-74
2024/01/31 01:45:42;;;;;;;;;;;;;;;21.65;20.32;99755.06;5033958;28;874;-75
2024/01/31 01:48:07;;;;;;;;;;;;;;;21.83;20.25;99755.09;5034280;28;1545;-75
2024/01/31 01:50:33;;;;;;;;;;;;;;;21.66;20.25;99759.56;5033977;28;891;-74
2024/01/31 01:52:58;;;;;;;;;;;;;;;21.67;20.19;99752.66;5034236;28;1981;-74
2024/01/31 01:55:24;;;;;;;;;;;;;;;21.83;20.27;99744.56;5034425;28;873;-74
2024/01/31 01:57:49;;;;;;;;;;;;;;;21.97;20.03;99751.47;5034270;28;1090;-74
2024/01/31 02:00:15;;;;;;;;;;;;;;;21.74;20.11;99744.16;5017651;28;775;-74
2024/01/31 02:02:40;;;;;;;;;;;;;;;21.64;20.57;99736.47;5017544;28;787;-74
2024/01/31 02:05:07;;;;;;;;;;;;;;;21.51;20.73;99746.56;4996576;28;924;-74
2024/01/31 02:07:32;;;;;;;;;;;;;;;21.66;20.47;99738.88;4980293;28;1052;-75
2024/01/31 02:09:59;;;;;;;;;;;;;;;21.57;20.29;99742.13;4996776;28;902;-74
2024/01/31 02:12:24;;;;;;;;;;;;;;;21.83;20.21;99740.94;4996796;28;1995;-74
2024/01/31 02:14:52;;;;;;;;;;;;;;;21.56;20.23;99735.66;4980606;28;961;-74
2024/01/31 02:17:17;;;;;;;;;;;;;;;21.71;20.15;99729.97;4997004;28;795;-74
2024/01/31 02:19:43;;;;;;;;;;;;;;;21.78;19.97;99727.97;5013213;28;1022;-74
2024/01/31 02:22:20;;;;;;;;;;;;;;;21.64;20.20;99730.78;4996407;28;1382;-74
2024/01/31 02:24:46;;;;;;;;;;;;;;;21.57;20.35;99739.31;4982226;28;1026;-74
2024/01/31 02:27:11;;;;;;;;;;;;;;;21.56;20.45;99734.84;5000182;28;776;-74
2024/01/31 02:29:37;;;;;;;;;;;;;;;21.70;20.20;99728.38;4983628;28;827;-74
2024/01/31 02:32:03;;;;;;;;;;;;;;;21.81;20.00;99735.69;4999796;28;1910;-74
2024/01/31 02:34:28;;;;;;;;;;;;;;;21.85;19.94;99724.31;5016354;28;796;-74
2024/01/31 02:36:54;;;;;;;;;;;;;;;21.77;19.91;99723.53;5030499;28;785;-74
2024/01/31 02:39:19;;;;;;;;;;;;;;;21.83;19.85;99721.91;5036922;28;727;-75
2024/01/31 02:41:45;;;;;;;;;;;;;;;22.13;19.75;99722.72;5037363;28;778;-74
2024/01/31 02:44:10;;;;;;;;;;;;;;;21.87;19.82;99721.91;5038608;28;747;-74
2024/01/31 02:46:37;;;;;;;;;;;;;;;21.57;20.32;99725.13;5036927;28;814;-74
2024/01/31 02:49:02;;;;;;;;;;;;;;;21.35;20.48;99717.81;5036880;28;1187;-74
2024/01/31 02:51:28;;;;;;;;;;;;;;;21.49;20.28;99710.16;5015542;28;1977;-74
2024/01/31 02:53:53;;;;;;;;;;;;;;;21.85;19.80;99719.47;4999683;28;944;-74
2024/01/31 02:56:19;;;;;;;;;;;;;;;21.70;20.21;99706.50;4976688;28;990;-74
2024/01/31 02:58:44;;;;;;;;;;;;;;;21.77;19.77;99709.34;4976765;28;1017;-74
2024/01/31 03:01:10;;;;;;;;;;;;;;;21.70;20.26;99717.03;4976867;28;811;-74
2024/01/31 03:03:35;;;;;;;;;;;;;;;21.62;20.26;99709.78;4976536;28;838;-74
2024/01/31 03:06:01;;;;;;;;;;;;;;;21.75;20.03;99708.94;4960608;28;917;-75
2024/01/31 03:08:26;;;;;;;;;;;;;;;21.76;19.81;99699.25;4960393;28;1243;-74
2024/01/31 03:10:52;;;;;;;;;;;;;;;21.83;19.74;99699.22;4960624;28;1551;-74
2024/01/31 03:13:17;;;;;;;;;;;;;;;21.97;19.86;99698.41;4976626;28;1902;-75
2024/01/31 03:15:43;;;;;;;;;;;;;;;21.84;19.78;99694.38;4960534;28;1298;-74
2024/01/31 03:18:08;;;;;;;;;;;;;;;21.88;19.85;99705.72;4976368;28;958;-74
2024/01/31 03:20:34;;;;;;;;;;;;;;;21.91;19.65;99696.38;4976550;28;826;-74
2024/01/31 03:23:00;;;;;;;;;;;;;;;21.81;19.83;99695.16;4973906;28;926;-74
2024/01/31 03:25:25;;;;;;;;;;;;;;;21.73;20.01;99688.72;4979564;28;1533;-74
2024/01/31 03:27:51;;;;;;;;;;;;;;;21.70;19.99;99695.19;4979576;28;768;-74
2024/01/31 03:30:16;;;;;;;;;;;;;;;21.49;20.08;99690.31;4979410;28;1104;-74
2024/01/31 03:32:43;;;;;;;;;;;;;;;21.22;20.56;99698.34;4982400;28;1972;-74
2024/01/31 03:35:08;;;;;;;;;;;;;;;21.46;20.25;99690.34;5019433;28;1307;-74
2024/01/31 03:37:34;;;;;;;;;;;;;;;21.71;20.00;99695.97;5037442;28;767;-74
2024/01/31 03:39:59;;;;;;;;;;;;;;;21.75;19.78;99694.78;5019697;28;1193;-74
2024/01/31 03:42:25;;;;;;;;;;;;;;;22.03;19.36;99688.28;5035828;28;1190;-74
2024/01/31 03:44:50;;;;;;;;;;;;;;;21.94;19.74;99692.75;5019325;28;1235;-74
2024/01/31 03:47:16;;;;;;;;;;;;;;;21.91;19.58;99694.34;5037092;28;954;-74
2024/01/31 03:49:41;;;;;;;;;;;;;;;21.67;19.83;99696.00;5002983;28;1209;-74
2024/01/31 03:52:07;;;;;;;;;;;;;;;21.68;19.86;99691.94;5019176;28;1911;-74
2024/01/31 03:54:33;;;;;;;;;;;;;;;22.03;19.67;99693.16;5037189;28;770;-74
2024/01/31 03:56:58;;;;;;;;;;;;;;;21.97;19.53;99691.94;5037142;28;739;-74
2024/01/31 03:59:24;;;;;;;;;;;;;;;21.83;19.83;99693.56;5037118;28;936;-74
2024/01/31 04:01:50;;;;;;;;;;;;;;;21.87;19.64;99699.25;5035769;28;763;-75
2024/01/31 04:04:16;;;;;;;;;;;;;;;21.79;20.02;99692.75;5018458;28;1404;-74
2024/01/31 04:06:41;;;;;;;;;;;;;;;21.73;20.12;99697.22;5019270;28;1064;-75
2024/01/31 04:09:07;;;;;;;;;;;;;;;21.47;20.25;99694.78;5035642;28;1112;-74
2024/01/31 04:11:34;;;;;;;;;;;;;;;21.30;20.22;99694.38;5035635;28;1914;-75
2024/01/31 04:14:00;;;;;;;;;;;;;;;21.25;20.54;99694.72;5035347;28;971;-75
2024/01/31 04:16:26;;;;;;;;;;;;;;;21.45;20.13;99694.34;5018951;28;1052;-74
2024/01/31 04:18:51;;;;;;;;;;;;;;;21.77;19.84;99695.19;5035059;28;1054;-74
2024/01/31 04:21:20;;;;;;;;;;;;;;;21.93;19.73;99691.94;5017876;28;1043;-74
2024/01/31 04:23:46;;;;;;;;;;;;;;;21.66;20.06;99696.38;5018838;28;873;-74
2024/01/31 04:26:12;;;;;;;;;;;;;;;21.71;19.76;99690.31;4997984;28;1128;-74
2024/01/31 04:28:37;;;;;;;;;;;;;;;21.66;19.86;99700.06;4997835;28;1058;-74
2024/01/31 04:31:03;;;;;;;;;;;;;;;21.71;19.83;99696.81;4981735;28;1206;-74
2024/01/31 04:33:29;;;;;;;;;;;;;;;21.67;20.10;99701.66;4981439;28;1906;-74
2024/01/31 04:35:54;;;;;;;;;;;;;;;21.67;19.76;99707.34;5014423;28;950;-74
2024/01/31 04:38:20;;;;;;;;;;;;;;;21.79;19.89;99709.75;4997818;28;974;-75
2024/01/31 04:40:45;;;;;;;;;;;;;;;21.49;19.91;99712.16;4997574;28;1050;-75
2024/01/31 04:43:12;;;;;;;;;;;;;;;21.49;20.03;99712.16;4965301;28;906;-74
2024/01/31 04:45:38;;;;;;;;;;;;;;;21.63;19.98;99700.84;5011197;28;826;-74
2024/01/31 04:48:04;;;;;;;;;;;;;;;21.85;19.53;99708.13;4981030;28;1899;-74
2024/01/31 04:50:29;;;;;;;;;;;;;;;21.40;20.10;99708.91;4997468;28;1053;-74
2024/01/31 04:52:55;;;;;;;;;;;;;;;21.54;20.09;99720.25;5013894;28;1984;-75
2024/01/31 04:55:20;;;;;;;;;;;;;;;21.59;19.91;99717.84;4997797;28;748;-74
2024/01/31 04:57:46;;;;;;;;;;;;;;;21.92;19.61;99723.53;5024273;28;854;-74
2024/01/31 05:00:15;;;;;;;;;;;;;;;21.77;19.62;99717.06;5035662;28;799;-74
2024/01/31 05:02:41;;;;;;;;;;;;;;;21.78;19.96;99722.31;5017926;28;835;-75
2024/01/31 05:05:06;;;;;;;;;;;;;;;21.80;19.96;99722.69;5035782;28;838;-74
2024/01/31 05:07:32;;;;;;;;;;;;;;;22.08;19.28;99715.41;5000708;28;1103;-74
2024/01/31 05:09:57;;;;;;;;;;;;;;;22.20;19.46;99719.88;5017732;28;1715;-74
2024/01/31 05:12:23;;;;;;;;;;;;;;;21.89;19.79;99715.81;5034745;28;2007;-74
2024/01/31 05:14:48;;;;;;;;;;;;;;;21.53;19.91;99713.00;5035792;28;1013;-74
2024/01/31 05:17:17;;;;;;;;;;;;;;;21.44;20.19;99715.41;5035519;28;995;-74
2024/01/31 05:19:42;;;;;;;;;;;;;;;21.41;20.14;99716.22;5035699;28;1484;-74
2024/01/31 05:22:08;;;;;;;;;;;;;;;21.24;20.48;99718.59;4997543;28;1003;-74
2024/01/31 05:24:33;;;;;;;;;;;;;;;21.69;20.02;99715.44;4997700;28;1785;-74
2024/01/31 05:27:04;;;;;;;;;;;;;;;21.57;20.21;99713.81;5007288;28;1557;-74
2024/01/31 05:29:29;;;;;;;;;;;;;;;21.51;19.93;99715.44;5005629;28;1652;-74
2024/01/31 05:31:55;;;;;;;;;;;;;;;21.81;19.82;99715.84;5007152;28;1955;-74
2024/01/31 05:34:22;;;;;;;;;;;;;;;21.82;19.76;99720.28;5021401;28;1536;-75
2024/01/31 05:36:48;;;;;;;;;;;;;;;21.40;20.23;99715.41;4981294;28;1223;-74
2024/01/31 05:39:14;;;;;;;;;;;;;;;21.50;19.87;99716.63;4981134;28;1026;-74
2024/01/31 05:41:43;;;;;;;;;;;;;;;21.71;19.91;99719.50;4980949;28;1146;-74
2024/01/31 05:44:08;;;;;;;;;;;;;;;21.50;19.95;99717.44;4996942;28;1022;-74
2024/01/31 05:46:34;;;;;;;;;;;;;;;21.33;20.13;99724.69;4997011;28;972;-74
2024/01/31 05:49:02;;;;;;;;;;;;;;;21.50;20.15;99725.94;5013333;28;1018;-74
2024/01/31 05:51:27;;;;;;;;;;;;;;;21.75;19.68;99720.28;4997439;28;1981;-74
2024/01/31 05:53:53;;;;;;;;;;;;;;;21.65;19.80;99721.06;5026873;28;982;-74
2024/01/31 05:56:19;;;;;;;;;;;;;;;21.66;19.66;99717.06;5034314;28;1031;-74
2024/01/31 05:58:44;;;;;;;;;;;;;;;21.71;19.81;99718.66;5034150;28;1022;-74
2024/01/31 06:01:09;;;;;;;;;;;;;;;21.92;19.34;99715.84;5021666;28;897;-74
2024/01/31 06:03:35;;;;;;;;;;;;;;;22.02;19.37;99719.84;5039491;28;1036;-74
2024/01/31 06:06:00;;;;;;;;;;;;;;;21.75;19.56;99720.28;5038056;28;1005;-75
2024/01/31 06:08:26;;;;;;;;;;;;;;;22.04;19.11;99726.75;5034200;28;1590;-74
2024/01/31 06:10:58;;;;;;;;;;;;;;;21.85;19.63;99722.28;5009894;28;1444;-75
2024/01/31 06:13:23;;;;;;;;;;;;;;;21.74;19.79;99724.31;5027603;28;1981;-75
2024/01/31 06:15:49;;;;;;;;;;;;;;;21.62;19.82;99732.44;5049982;28;1505;-74
2024/01/31 06:18:15;;;;;;;;;;;;;;;21.66;19.73;99733.22;5056788;28;963;-75
2024/01/31 06:20:43;;;;;;;;;;;;;;;21.82;19.46;99737.28;5016781;28;975;-74
2024/01/31 06:23:10;;;;;;;;;;;;;;;21.22;20.17;99743.66;5000023;28;1016;-74
2024/01/31 06:25:38;;;;;;;;;;;;;;;21.13;20.18;99740.38;5000296;28;1243;-74
2024/01/31 06:28:05;;;;;;;;;;;;;;;21.43;20.11;99742.91;5016625;28;971;-74
2024/01/31 06:30:48;;;;;;;;;;;;;;;21.58;19.63;99738.09;5016304;28;978;-75
2024/01/31 06:33:17;;;;;;;;;;;;;;;21.71;19.56;99730.81;4999940;28;1969;-74
2024/01/31 06:35:42;;;;;;;;;;;;;;;21.50;19.98;99733.59;5016228;28;972;-74
2024/01/31 06:38:08;;;;;;;;;;;;;;;21.61;19.62;99731.63;5000106;28;983;-74
2024/01/31 06:40:33;;;;;;;;;;;;;;;21.75;19.72;99734.44;5016441;28;915;-74
2024/01/31 06:42:59;;;;;;;;;;;;;;;21.78;19.47;99742.13;5016456;28;1075;-74
2024/01/31 06:45:25;;;;;;;;;;;;;;;21.87;19.59;99740.94;4999775;28;1394;-75
2024/01/31 06:47:51;;;;;;;;;;;;;;;21.84;19.61;99739.72;4980063;28;1175;-74
2024/01/31 06:50:16;;;;;;;;;;;;;;;21.96;19.17;99742.13;4977123;28;976;-75
2024/01/31 06:52:42;;;;;;;;;;;;;;;22.02;19.38;99746.19;4997967;28;1914;-74
2024/01/31 06:55:07;;;;;;;;;;;;;;;21.95;19.52;99739.72;4999639;28;969;-74
2024/01/31 06:57:34;;;;;;;;;;;;;;;21.53;20.02;99746.97;4999834;28;1063;-74
2024/01/31 07:00:00;;;;;;;;;;;;;;;21.73;19.68;99744.56;4983627;28;1026;-74
2024/01/31 07:02:26;;;;;;;;;;;;;;;21.38;20.05;99739.66;5016462;28;988;-74
2024/01/31 07:04:51;;;;;;;;;;;;;;;21.69;19.71;99744.56;5015944;28;964;-74
2024/01/31 07:07:17;;;;;;;;;;;;;;;21.67;19.78;99732.03;4996103;28;1252;-74
2024/01/31 07:09:42;;;;;;;;;;;;;;;21.58;19.88;99738.09;4995833;28;1416;-74
2024/01/31 07:12:08;;;;;;;;;;;;;;;21.65;19.63;99737.25;4957440;29;1971;-74
2024/01/31 07:14:33;;;;;;;;;;;;;;;21.65;19.83;99734.44;4947280;29;1396;-74
2024/01/31 07:16:59;;;;;;;;;;;;;;;21.55;19.59;99742.53;4937958;29;1061;-75
2024/01/31 07:19:24;;;;;;;;;;;;;;;21.93;19.56;99725.16;4900050;29;1149;-74
2024/01/31 07:21:50;;;;;;;;;;;;;;;21.82;19.62;99725.97;4884155;29;1279;-74
2024/01/31 07:24:16;;;;;;;;;;;;;;;21.98;19.25;99721.91;4899874;29;1166;-74
2024/01/31 07:26:42;;;;;;;;;;;;;;;21.71;19.57;99725.16;4884557;29;1115;-74
2024/01/31 07:29:08;;;;;;;;;;;;;;;21.77;19.65;99728.38;4900097;29;998;-75
2024/01/31 07:31:34;;;;;;;;;;;;;;;21.57;19.87;99714.63;4884431;29;1966;-74
2024/01/31 07:33:59;;;;;;;;;;;;;;;21.46;20.00;99710.16;4884277;29;1243;-74
2024/01/31 07:36:25;;;;;;;;;;;;;;;21.38;19.99;99711.34;4884355;29;1114;-74
2024/01/31 07:38:50;;;;;;;;;;;;;;;21.61;19.69;99714.63;4927584;29;982;-74
2024/01/31 07:41:16;;;;;;;;;;;;;;;21.79;19.41;99714.63;4937773;29;1235;-74
2024/01/31 07:43:42;;;;;;;;;;;;;;;21.24;20.34;99712.94;4937664;29;960;-74
2024/01/31 07:46:08;;;;;;;;;;;;;;;21.04;20.49;99720.16;4937770;29;1179;-74
2024/01/31 07:48:34;;;;;;;;;;;;;;;21.05;20.58;99721.78;4955063;28;1047;-75
2024/01/31 07:51:03;;;;;;;;;;;;;;;21.12;20.57;99710.47;4979222;28;1176;-74
2024/01/31 07:53:28;;;;;;;;;;;;;;;21.01;20.55;99709.63;4979150;28;1910;-75
2024/01/31 07:55:54;;;;;;;;;;;;;;;20.71;20.82;99707.09;4981100;28;993;-74
2024/01/31 07:58:19;;;;;;;;;;;;;;;20.69;21.13;99710.31;5017658;28;938;-75
2024/01/31 08:00:45;;;;;;;;;;;;;;;20.61;20.87;99696.53;5025849;28;1622;-74
2024/01/31 08:03:11;;;;;;;;;;;;;;;20.50;21.02;99696.50;5019246;28;1595;-74
2024/01/31 08:05:36;;;;;;;;;;;;;;;20.75;21.01;99699.44;5018409;28;1837;-74
2024/01/31 08:08:02;;;;;;;;;;;;;;;20.45;21.06;99702.50;5018968;28;1822;-74
2024/01/31 08:10:30;;;;;;;;;;;;;;;20.42;21.31;99700.47;5033918;28;1726;-74
2024/01/31 08:12:56;;;;;;;;;;;;;;;20.75;21.03;99693.78;5027150;28;1910;-74
2024/01/31 08:15:21;;;;;;;;;;;;;;;20.98;20.69;99696.25;5025195;28;1482;-74
2024/01/31 08:17:47;;;;;;;;;;;;;;;21.24;20.10;99690.28;5027364;28;1966;-74
2024/01/31 08:20:13;;;;;;;;;;;;;;;21.13;20.45;99695.09;5007164;28;1550;-74
2024/01/31 08:22:38;;;;;;;;;;;;;;;21.28;20.26;99685.41;5014985;28;922;-74
2024/01/31 08:25:04;;;;;;;;;;;;;;;21.32;19.98;99691.13;5023340;28;1245;-74
2024/01/31 08:27:29;;;;;;;;;;;;;;;21.41;20.23;99687.91;5036390;28;1006;-74
2024/01/31 08:29:55;;;;;;;;;;;;;;;21.28;20.12;99691.06;5019142;28;938;-74
2024/01/31 08:32:21;;;;;;;;;;;;;;;21.44;19.98;99687.09;5018561;28;1976;-74
2024/01/31 08:34:46;;;;;;;;;;;;;;;21.65;19.54;99687.09;5011674;28;1360;-74
2024/01/31 08:37:12;;;;;;;;;;;;;;;21.38;20.12;99688.69;4991767;28;1609;-75
2024/01/31 08:39:37;;;;;;;;;;;;;;;21.52;20.04;99683.06;4978254;28;1111;-75
2024/01/31 08:42:03;;;;;;;;;;;;;;;21.19;20.38;99693.50;4978219;28;1116;-74
2024/01/31 08:44:29;;;;;;;;;;;;;;;21.51;19.87;99687.09;4977969;28;1223;-74
2024/01/31 08:46:54;;;;;;;;;;;;;;;21.51;19.81;99689.94;4994578;28;995;-74
2024/01/31 08:49:23;;;;;;;;;;;;;;;21.78;19.64;99690.34;4978047;28;1369;-74
2024/01/31 08:51:49;;;;;;;;;;;;;;;21.63;19.88;99683.84;4994687;28;1914;-74
2024/01/31 08:54:14;;;;;;;;;;;;;;;21.58;19.99;99675.75;4993898;28;1681;-75
2024/01/31 08:56:40;;;;;;;;;;;;;;;21.58;19.94;99675.75;4974767;28;1591;-75
2024/01/31 08:59:05;;;;;;;;;;;;;;;21.88;19.52;99675.34;4975124;28;1043;-74
2024/01/31 09:01:31;;;;;;;;;;;;;;;21.27;19.54;99598.88;4958615;28;944;-75
2024/01/31 09:03:56;;;;;;;;;;;;;;;21.67;19.92;99667.69;4973216;28;1697;-75
2024/01/31 09:06:22;;;;;;;;;;;;;;;21.52;20.17;99671.72;4961775;28;1026;-75
2024/01/31 09:08:48;;;;;;;;;;;;;;;21.71;19.70;99667.66;5038863;28;1024;-74
2024/01/31 09:11:14;;;;;;;;;;;;;;;21.57;20.09;99671.31;5036877;28;1102;-74
2024/01/31 09:13:40;;;;;;;;;;;;;;;21.53;19.93;99667.66;5037097;28;1906;-74
2024/01/31 09:16:06;;;;;;;;;;;;;;;21.64;20.10;99665.63;5037152;28;1074;-74
2024/01/31 09:18:31;;;;;;;;;;;;;;;21.76;19.65;99670.91;5053078;28;1090;-75
2024/01/31 09:20:57;;;;;;;;;;;;;;;21.81;19.75;99662.00;5037145;28;1070;-74
2024/01/31 09:23:22;;;;;;;;;;;;;;;21.49;20.02;99662.00;4993526;28;1070;-75
2024/01/31 09:25:49;;;;;;;;;;;;;;;21.44;20.05;99653.09;4993963;28;1295;-74
2024/01/31 09:28:14;;;;;;;;;;;;;;;21.24;20.47;99641.31;4977901;28;1491;-75
2024/01/31 09:30:40;;;;;;;;;;;;;;;21.41;20.43;99639.78;4977786;28;908;-74
2024/01/31 09:33:06;;;;;;;;;;;;;;;21.47;20.10;99633.28;4994838;28;1902;-75
2024/01/31 09:35:31;;;;;;;;;;;;;;;21.57;20.21;99635.31;4981976;28;1234;-74
2024/01/31 09:37:57;;;;;;;;;;;;;;;21.38;20.26;99632.06;4997834;28;1037;-74
2024/01/31 09:40:23;;;;;;;;;;;;;;;21.88;19.81;99629.19;4997174;28;1501;-75
2024/01/31 09:42:51;;;;;;;;;;;;;;;21.75;20.11;99623.94;4976511;28;1579;-74
2024/01/31 09:45:17;;;;;;;;;;;;;;;21.87;19.96;99630.41;4976008;28;1669;-75
2024/01/31 09:47:43;;;;;;;;;;;;;;;21.78;20.08;99617.47;4970441;28;1653;-74
2024/01/31 09:50:08;;;;;;;;;;;;;;;21.84;19.68;99615.84;4965570;28;1476;-74
2024/01/31 09:52:35;;;;;;;;;;;;;;;21.63;20.12;99615.88;4961816;28;1960;-74
2024/01/31 09:55:00;;;;;;;;;;;;;;;21.46;20.23;99611.03;4986877;28;1022;-74
2024/01/31 09:57:27;;;;;;;;;;;;;;;21.52;20.34;99612.25;5017308;28;961;-75
2024/01/31 09:59:56;;;;;;;;;;;;;;;21.52;20.35;99609.41;4962076;28;1016;-74
2024/01/31 10:02:21;;;;;;;;;;;;;;;21.61;20.34;99601.31;4978105;28;1117;-74
2024/01/31 10:04:48;;;;;;;;;;;;;;;21.73;20.12;99591.56;4977460;28;1036;-75
2024/01/31 10:07:29;;;;;;;;;;;;;;;21.70;20.24;99593.19;4977897;28;1116;-74
2024/01/31 10:09:55;;;;;;;;;;;;;;;21.69;20.19;99591.56;4977797;28;949;-74
2024/01/31 10:12:22;;;;;;;;;;;;;;;21.67;20.00;99588.34;4978060;28;1907;-74
2024/01/31 10:14:54;;;;;;;;;;;;;;;21.83;19.96;99594.38;4977554;28;987;-74
2024/01/31 10:17:20;;;;;;;;;;;;;;;21.65;20.13;99590.78;4977353;28;1015;-74
2024/01/31 10:19:46;;;;;;;;;;;;;;;21.45;20.52;99586.75;4961676;28;1048;-74
2024/01/31 10:22:12;;;;;;;;;;;;;;;21.24;20.61;99581.88;4977639;28;1070;-74
2024/01/31 10:24:40;;;;;;;;;;;;;;;21.52;20.50;99578.25;4977497;28;1238;-74
2024/01/31 10:27:07;;;;;;;;;;;;;;;21.65;20.18;99579.44;4959285;28;956;-74
2024/01/31 10:29:33;;;;;;;;;;;;;;;22.05;19.60;99565.97;4974341;28;983;-74
2024/01/31 10:32:02;;;;;;;;;;;;;;;21.83;19.79;99566.06;4998457;28;1907;-74
2024/01/31 10:34:28;;;;;;;;;;;;;;;21.41;20.24;99555.63;4984145;28;974;-74
2024/01/31 10:36:54;;;;;;;;;;;;;;;21.03;20.96;99571.34;4999996;28;1141;-75
2024/01/31 10:39:20;;;;;;;;;;;;;;;21.53;20.28;99571.38;4967057;28;1692;-75
2024/01/31 10:41:47;;;;;;;;;;;;;;;21.68;20.20;99570.13;4968787;28;1629;-74
2024/01/31 10:44:14;;;;;;;;;;;;;;;21.56;20.46;99562.88;4974383;28;1534;-74
2024/01/31 10:46:40;;;;;;;;;;;;;;;21.67;20.24;99562.88;4993312;28;950;-74
2024/01/31 10:49:05;;;;;;;;;;;;;;;21.63;20.06;99559.22;5013117;28;1030;-74
2024/01/31 10:51:31;;;;;;;;;;;;;;;21.70;20.12;99567.69;5012723;28;1903;-74
2024/01/31 10:53:56;;;;;;;;;;;;;;;21.60;20.65;99571.34;5028363;28;1625;-77
2024/01/31 10:56:24;;;;;;;;;;;;;;;21.89;20.04;99565.63;5016194;28;924;-76
2024/01/31 10:58:49;;;;;;;;;;;;;;;21.59;20.56;99561.25;4991703;28;1597;-70
2024/01/31 11:01:15;;;;;;;;;;;;;;;21.75;20.57;99555.94;5012556;28;1653;-69
2024/01/31 11:03:47;;;;;;;;;;;;;;;21.54;20.54;99556.00;5010219;28;1341;-75
2024/01/31 11:06:12;;;;;;;;;;;;;;;21.17;21.11;99548.72;5012687;28;1545;-74
2024/01/31 11:12:13;;;;;;;;;;;;;;;21.38;20.97;99535.78;5047636;28;2005;-73
2024/01/31 11:14:42;;;;;;;;;;;;;;;21.26;21.25;99539.81;5013776;28;1452;-74
2024/01/31 11:17:08;;;;;;;;;;;;;;;21.62;20.81;99534.94;5005940;28;1546;-74
2024/01/31 11:19:34;;;;;;;;;;;;;;;21.64;20.53;99534.53;4972611;28;1556;-73
2024/01/31 11:22:00;;;;;;;;;;;;;;;21.42;20.80;99525.28;5004821;28;1446;-73
2024/01/31 11:24:25;;;;;;;;;;;;;;;21.37;21.08;99528.53;5003854;28;1591;-75
2024/01/31 11:26:51;;;;;;;;;;;;;;;21.53;20.67;99526.06;4990313;28;1695;-74
2024/01/31 11:29:17;;;;;;;;;;;;;;;21.32;21.08;99527.72;4989148;28;1566;-74
2024/01/31 11:31:43;;;;;;;;;;;;;;;21.23;21.02;99518.78;4971103;28;1922;-74
2024/01/31 11:34:08;;;;;;;;;;;;;;;21.39;21.10;99514.75;4989978;28;1716;-74
2024/01/31 11:36:34;;;;;;;;;;;;;;;21.50;20.85;99515.53;4984116;28;1560;-74
2024/01/31 11:38:59;;;;;;;;;;;;;;;21.32;21.27;99505.06;4985655;28;1582;-73
2024/01/31 11:41:25;;;;;;;;;;;;;;;21.58;20.87;99500.97;4970433;28;1478;-75
2024/01/31 11:43:50;;;;;;;;;;;;;;;21.65;20.59;99500.13;4967957;28;1478;-73
2024/01/31 11:46:16;;;;;;;;;;;;;;;21.54;20.88;99493.69;4947368;29;1853;-73
2024/01/31 11:48:41;;;;;;;;;;;;;;;21.13;21.39;99485.63;4944376;28;1553;-73
2024/01/31 11:51:07;;;;;;;;;;;;;;;20.96;21.75;99486.47;4965772;28;1541;-74
2024/01/31 11:53:33;;;;;;;;;;;;;;;20.76;21.98;99489.69;4951097;28;2333;-74
2024/01/31 11:55:59;;;;;;;;;;;;;;;20.45;22.45;99493.28;4967952;28;1472;-74
2024/01/31 11:58:24;;;;;;;;;;;;;;;20.33;22.17;99488.00;4969241;28;1547;-73
2024/01/31 12:00:50;;;;;;;;;;;;;;;20.35;22.47;99482.75;4969345;28;1626;-74
2024/01/31 12:03:16;;;;;;;;;;;;;;;20.56;22.10;99479.97;4967891;28;1837;-74
2024/01/31 12:05:41;;;;;;;;;;;;;;;20.72;21.67;99483.22;4985776;28;1426;-73
2024/01/31 12:08:07;;;;;;;;;;;;;;;20.65;21.85;99473.94;4970084;28;1271;-72
2024/01/31 12:10:32;;;;;;;;;;;;;;;20.55;21.97;99476.34;4985967;28;1512;-73
2024/01/31 12:13:00;;;;;;;;;;;;;;;20.27;22.43;99477.09;4983410;28;1910;-73
2024/01/31 12:15:25;;;;;;;;;;;;;;;20.36;22.35;99475.88;4976249;28;1978;-73
2024/01/31 12:17:51;;;;;;;;;;;;;;;20.76;21.86;99464.25;4997384;28;1496;-72
2024/01/31 12:20:17;;;;;;;;;;;;;;;20.69;21.75;99471.94;5022413;28;1825;-73
2024/01/31 12:22:44;;;;;;;;;;;;;;;20.48;22.08;99467.06;5008306;28;1567;-73
2024/01/31 12:25:10;;;;;;;;;;;;;;;20.45;22.11;99462.16;5023411;28;1519;-73
2024/01/31 12:27:36;;;;;;;;;;;;;;;20.39;22.36;99463.78;4989938;28;1515;-72
2024/01/31 12:30:01;;;;;;;;;;;;;;;20.80;21.82;99462.22;5026756;28;1621;-73
2024/01/31 12:32:27;;;;;;;;;;;;;;;20.53;22.08;99463.84;5032344;28;1891;-73
2024/01/31 12:34:53;;;;;;;;;;;;;;;20.27;22.23;99456.50;5033174;28;1522;-73
2024/01/31 12:37:19;;;;;;;;;;;;;;;20.35;22.42;99458.13;5013548;28;1628;-73
2024/01/31 12:39:44;;;;;;;;;;;;;;;20.27;22.25;99459.34;5021296;28;1547;-74
2024/01/31 12:42:10;;;;;;;;;;;;;;;20.30;22.32;99462.16;5037470;28;1649;-74
2024/01/31 12:44:35;;;;;;;;;;;;;;;20.74;21.78;99458.19;5038580;28;1576;-73
2024/01/31 12:47:05;;;;;;;;;;;;;;;20.75;21.76;99451.31;5038016;28;1050;-74
2024/01/31 12:49:33;;;;;;;;;;;;;;;20.71;21.90;99447.66;5017705;28;1167;-74
2024/01/31 12:51:59;;;;;;;;;;;;;;;20.44;22.24;99450.06;5001014;28;1989;-74
2024/01/31 12:54:25;;;;;;;;;;;;;;;20.80;21.53;99445.25;5017326;28;972;-74
2024/01/31 12:56:50;;;;;;;;;;;;;;;21.12;21.39;99458.56;5000806;28;1177;-74